Time;durP1;ratioP1;P1;durP2;ratioP2;P2;SDS_P1;SDS_P2;PMS_P1;PMS_P2;Temp;Humidity;BMP_temperature;BMP_pressure;BME280_temperature;BME280_humidity;BME280_pressure;Samples;Min_cycle;Max_cycle;Signal;HPM_P1;HPM_P2
2022/11/10 00:00:02;;;;;;;;;;;;;;;18.76;49.78;99387.47;4513458;31;33679;-85
2022/11/10 00:02:48;;;;;;;;;;;;;;;18.98;49.45;99382.69;4499817;31;34761;-86
2022/11/10 00:05:35;;;;;;;;;;;;;;;19.28;48.83;99403.19;4498353;31;33786;-85
2022/11/10 00:08:20;;;;;;;;;;;;;;;19.18;48.99;99401.59;4503384;31;33777;-87
2022/11/10 00:11:06;;;;;;;;;;;;;;;19.33;48.63;99408.34;4513711;31;31803;-86
2022/11/10 00:16:59;;;;;;;;;;;;;;;19.59;48.02;99399.94;4508682;31;34285;-86
2022/11/10 00:19:45;;;;;;;;;;;;;;;19.62;47.80;99400.78;4515132;31;34076;-86
2022/11/10 00:22:31;;;;;;;;;;;;;;;19.60;47.76;99404.31;4499829;31;34136;-86
2022/11/10 00:25:17;;;;;;;;;;;;;;;19.69;47.56;99409.41;4499485;31;34012;-87
2022/11/10 00:28:03;;;;;;;;;;;;;;;19.41;48.02;99409.91;4505936;31;34416;-84
2022/11/10 00:30:48;;;;;;;;;;;;;;;19.18;48.40;99415.59;4511286;31;33873;-86
2022/11/10 00:33:35;;;;;;;;;;;;;;;19.06;48.73;99422.84;4498011;31;33869;-86
2022/11/10 00:36:20;;;;;;;;;;;;;;;19.14;48.56;99423.59;4506370;31;33935;-86
2022/11/10 00:39:07;;;;;;;;;;;;;;;19.50;47.83;99414.13;4513659;31;35073;-87
2022/11/10 00:41:52;;;;;;;;;;;;;;;19.14;48.37;99420.94;4505262;31;34055;-87
2022/11/10 00:44:38;;;;;;;;;;;;;;;19.27;48.18;99413.69;4501772;31;33497;-86
2022/11/10 00:47:23;;;;;;;;;;;;;;;19.34;47.79;99413.56;4500667;31;34097;-86
2022/11/10 00:50:09;;;;;;;;;;;;;;;19.14;48.04;99413.06;4499097;31;34324;-87
2022/11/10 00:52:55;;;;;;;;;;;;;;;19.34;47.82;99418.81;4510377;31;34193;-87
2022/11/10 00:55:40;;;;;;;;;;;;;;;19.43;47.58;99413.41;4514667;31;33276;-86
2022/11/10 00:58:26;;;;;;;;;;;;;;;19.58;47.12;99406.94;4514318;31;34813;-85
2022/11/10 01:01:12;;;;;;;;;;;;;;;19.41;47.38;99404.66;4498314;31;34217;-85
2022/11/10 01:03:58;;;;;;;;;;;;;;;19.10;48.36;99409.62;4498840;31;34815;-86
2022/11/10 01:06:46;;;;;;;;;;;;;;;19.33;47.82;99403.94;4499447;31;34323;-86
2022/11/10 01:09:32;;;;;;;;;;;;;;;18.52;49.72;99409.69;4504660;31;34262;-86
2022/11/10 01:12:17;;;;;;;;;;;;;;;19.08;48.67;99411.41;4510611;31;34466;-87
2022/11/10 01:15:03;;;;;;;;;;;;;;;19.34;47.96;99403.03;4513596;31;34019;-86
2022/11/10 01:17:49;;;;;;;;;;;;;;;19.60;47.30;99405.16;4500520;31;32963;-86
2022/11/10 01:20:35;;;;;;;;;;;;;;;19.51;47.65;99400.09;4507704;31;34134;-86
2022/11/10 01:23:20;;;;;;;;;;;;;;;19.49;47.79;99403.66;4499217;31;34896;-87
2022/11/10 01:26:07;;;;;;;;;;;;;;;19.66;47.38;99402.44;4498385;31;34780;-86
2022/11/10 01:28:53;;;;;;;;;;;;;;;19.81;47.15;99409.16;4501547;31;32272;-86
2022/11/10 01:31:38;;;;;;;;;;;;;;;19.98;46.84;99414.06;4514887;31;34472;-85
2022/11/10 01:34:24;;;;;;;;;;;;;;;20.07;46.60;99411.22;4514865;31;33840;-87
2022/11/10 01:37:10;;;;;;;;;;;;;;;20.13;46.53;99415.50;4514093;31;33908;-85
2022/11/10 01:39:56;;;;;;;;;;;;;;;20.23;46.23;99409.13;4514393;31;33765;-87
2022/11/10 01:42:52;;;;;;;;;;;;;;;19.81;46.97;99411.78;4500287;31;33343;-87
2022/11/10 01:45:40;;;;;;;;;;;;;;;18.89;49.09;99413.47;4503879;31;34213;-86
2022/11/10 01:48:28;;;;;;;;;;;;;;;18.84;49.39;99420.59;4500707;31;34016;-87
2022/11/10 01:51:17;;;;;;;;;;;;;;;18.67;49.95;99414.69;4500407;31;33528;-86
2022/11/10 01:54:13;;;;;;;;;;;;;;;19.15;48.86;99410.41;4498832;31;34702;-86
2022/11/10 01:56:59;;;;;;;;;;;;;;;19.13;48.79;99419.19;4499939;31;34358;-87
2022/11/10 01:59:45;;;;;;;;;;;;;;;19.33;48.33;99416.22;4508383;31;33688;-86
2022/11/10 02:02:32;;;;;;;;;;;;;;;19.00;49.03;99415.06;4501068;31;32971;-86
2022/11/10 02:05:18;;;;;;;;;;;;;;;18.71;49.68;99416.41;4499593;31;35264;-86
2022/11/10 02:08:04;;;;;;;;;;;;;;;18.66;49.85;99424.34;4487589;31;32710;-87
2022/11/10 02:10:49;;;;;;;;;;;;;;;18.85;49.47;99434.59;4511842;31;35411;-87
2022/11/10 02:13:35;;;;;;;;;;;;;;;18.27;50.96;99423.19;4512282;31;33631;-86
2022/11/10 02:16:21;;;;;;;;;;;;;;;18.70;50.04;99436.56;4488052;31;34150;-87
2022/11/10 02:19:13;;;;;;;;;;;;;;;18.77;49.73;99432.09;4501262;31;34295;-86
2022/11/10 02:21:59;;;;;;;;;;;;;;;18.87;49.65;99438.94;4502227;31;34289;-85
2022/11/10 02:24:45;;;;;;;;;;;;;;;18.63;50.06;99441.91;4504865;31;33556;-86
2022/11/10 02:27:31;;;;;;;;;;;;;;;18.55;50.34;99444.66;4505374;31;33881;-86
2022/11/10 02:30:16;;;;;;;;;;;;;;;17.94;51.97;99445.50;4511766;31;34162;-86
2022/11/10 02:33:02;;;;;;;;;;;;;;;18.46;50.63;99443.03;4515137;31;34068;-86
2022/11/10 02:35:48;;;;;;;;;;;;;;;18.36;50.88;99441.41;4513264;31;33517;-86
2022/11/10 02:38:34;;;;;;;;;;;;;;;18.42;50.67;99451.84;4499951;31;33794;-87
2022/11/10 02:41:19;;;;;;;;;;;;;;;18.02;51.77;99443.63;4500588;31;34834;-87
2022/11/10 02:44:05;;;;;;;;;;;;;;;18.82;49.81;99455.62;4500091;31;34351;-86
2022/11/10 02:46:51;;;;;;;;;;;;;;;18.54;50.25;99450.78;4498667;31;32855;-86
2022/11/10 02:49:36;;;;;;;;;;;;;;;18.75;49.86;99446.13;4504503;31;34324;-86
2022/11/10 02:52:22;;;;;;;;;;;;;;;19.01;49.29;99459.69;4512633;31;35713;-85
2022/11/10 02:55:08;;;;;;;;;;;;;;;19.12;48.84;99456.88;4510267;31;34356;-86
2022/11/10 02:57:53;;;;;;;;;;;;;;;19.19;48.48;99455.91;4509054;31;32994;-86
2022/11/10 03:00:39;;;;;;;;;;;;;;;18.91;49.31;99460.75;4509042;31;34204;-86
2022/11/10 03:03:26;;;;;;;;;;;;;;;19.00;49.10;99459.72;4515040;31;34017;-86
2022/11/10 03:06:11;;;;;;;;;;;;;;;18.91;49.11;99473.91;4515404;31;33679;-86
2022/11/10 03:08:57;;;;;;;;;;;;;;;19.09;48.86;99472.72;4515667;31;32682;-86
2022/11/10 03:11:43;;;;;;;;;;;;;;;19.23;48.36;99480.38;4507716;31;35066;-86
2022/11/10 03:14:29;;;;;;;;;;;;;;;19.14;48.58;99489.28;4499513;31;34573;-86
2022/11/10 03:17:14;;;;;;;;;;;;;;;19.24;48.41;99488.22;4504690;31;33490;-87
2022/11/10 03:20:00;;;;;;;;;;;;;;;19.48;47.95;99488.69;4499485;31;33957;-85
2022/11/10 03:22:46;;;;;;;;;;;;;;;18.93;49.17;99486.09;4513192;31;34422;-86
2022/11/10 03:25:33;;;;;;;;;;;;;;;18.86;49.60;99488.84;4511377;31;34260;-85
2022/11/10 03:28:18;;;;;;;;;;;;;;;19.10;49.03;99484.97;4499944;31;34421;-86
2022/11/10 03:31:04;;;;;;;;;;;;;;;18.05;51.58;99488.22;4507890;31;34058;-86
2022/11/10 03:33:50;;;;;;;;;;;;;;;18.04;51.73;99485.63;4507473;31;35435;-86
2022/11/10 03:36:36;;;;;;;;;;;;;;;16.92;54.49;99490.19;4512904;31;35285;-85
2022/11/10 03:39:23;;;;;;;;;;;;;;;17.06;54.56;99497.06;4511318;31;34741;-86
2022/11/10 03:42:08;;;;;;;;;;;;;;;16.72;55.31;99503.41;4513437;31;33204;-84
2022/11/10 03:44:54;;;;;;;;;;;;;;;17.32;53.86;99500.34;4514805;31;35103;-86
2022/11/10 03:47:40;;;;;;;;;;;;;;;16.47;56.23;99507.91;4506078;31;33906;-86
2022/11/10 03:50:25;;;;;;;;;;;;;;;16.67;55.52;99512.19;4499490;31;34950;-86
2022/11/10 03:53:11;;;;;;;;;;;;;;;16.25;56.75;99506.28;4499431;31;32506;-86
2022/11/10 03:56:00;;;;;;;;;;;;;;;16.98;54.70;99513.72;4512989;31;34662;-86
2022/11/10 03:58:45;;;;;;;;;;;;;;;17.54;53.11;99507.97;4502229;31;34281;-86
2022/11/10 04:01:31;;;;;;;;;;;;;;;17.00;54.33;99519.78;4508879;31;33620;-86
2022/11/10 04:10:48;;;;;;;;;;;;;;;16.73;55.34;99531.34;4465438;32;33169;-86
2022/11/10 04:16:38;;;;;;;;;;;;;;;16.34;56.18;99532.41;4500265;31;34007;-86
2022/11/10 04:19:24;;;;;;;;;;;;;;;16.40;56.16;99529.78;4499146;31;33632;-86
2022/11/10 04:23:25;;;;;;;;;;;;;;;16.56;55.51;99533.19;4503622;31;34392;-85
2022/11/10 04:25:16;;;;;;;;;;;;;;;16.45;55.88;99530.59;4512156;31;34425;-85
2022/11/10 04:28:01;;;;;;;;;;;;;;;15.78;57.73;99536.09;4514073;31;33310;-85
2022/11/10 04:30:47;;;;;;;;;;;;;;;16.60;55.50;99541.88;4512658;31;34246;-87
2022/11/10 04:33:34;;;;;;;;;;;;;;;16.20;56.54;99531.59;4507206;31;34533;-87
2022/11/10 04:36:21;;;;;;;;;;;;;;;16.34;56.46;99537.66;4505587;31;34098;-87
2022/11/10 04:39:06;;;;;;;;;;;;;;;16.63;55.28;99536.59;4513126;31;32957;-87
2022/11/10 04:41:52;;;;;;;;;;;;;;;17.01;54.38;99539.03;4499037;31;34352;-85
2022/11/10 04:44:44;;;;;;;;;;;;;;;16.11;56.65;99542.09;4508360;31;34490;-85
2022/11/10 04:47:29;;;;;;;;;;;;;;;16.69;55.25;99550.53;4508661;31;33742;-86
2022/11/10 04:50:15;;;;;;;;;;;;;;;16.76;54.64;99552.28;4514486;31;34309;-84
2022/11/10 04:53:01;;;;;;;;;;;;;;;17.59;52.10;99543.75;4501590;31;33965;-85
2022/11/10 04:55:47;;;;;;;;;;;;;;;17.31;52.87;99550.13;4499838;31;34210;-85
2022/11/10 04:58:33;;;;;;;;;;;;;;;16.94;53.89;99555.66;4498806;31;33899;-85
2022/11/10 05:01:19;;;;;;;;;;;;;;;16.56;54.92;99561.97;4503919;31;33506;-87
2022/11/10 05:04:05;;;;;;;;;;;;;;;17.47;52.43;99568.34;4503622;31;33909;-86
2022/11/10 05:06:52;;;;;;;;;;;;;;;16.71;54.51;99574.09;4509280;31;35082;-85
2022/11/10 05:09:38;;;;;;;;;;;;;;;17.31;52.77;99574.56;4498474;31;34787;-86
2022/11/10 05:12:24;;;;;;;;;;;;;;;16.91;53.46;99576.63;4500384;31;33467;-86
2022/11/10 05:15:10;;;;;;;;;;;;;;;16.65;54.53;99575.00;4511420;31;35516;-87
2022/11/10 05:17:56;;;;;;;;;;;;;;;16.47;55.10;99575.94;4507977;31;34229;-86
2022/11/10 05:20:41;;;;;;;;;;;;;;;16.83;53.96;99579.28;4510181;31;33811;-85
2022/11/10 05:23:40;;;;;;;;;;;;;;;16.88;53.63;99585.38;4506805;31;33370;-86
2022/11/10 05:26:26;;;;;;;;;;;;;;;17.17;52.95;99586.94;4507683;31;34930;-86
2022/11/10 05:29:12;;;;;;;;;;;;;;;16.57;54.64;99591.63;4498172;31;35241;-86
2022/11/10 05:31:58;;;;;;;;;;;;;;;16.88;53.94;99584.50;4501658;31;34565;-85
2022/11/10 05:34:44;;;;;;;;;;;;;;;16.84;54.06;99591.50;4507464;31;33636;-86
2022/11/10 05:37:29;;;;;;;;;;;;;;;17.11;53.63;99595.69;4506075;31;33963;-86
2022/11/10 05:40:15;;;;;;;;;;;;;;;16.90;54.25;99599.34;4510840;31;35154;-85
2022/11/10 05:43:02;;;;;;;;;;;;;;;17.08;53.88;99605.31;4502685;31;34331;-83
2022/11/10 05:45:48;;;;;;;;;;;;;;;17.50;52.78;99607.66;4512530;31;33031;-87
2022/11/10 05:48:34;;;;;;;;;;;;;;;17.37;52.48;99613.84;4503270;31;34896;-86
2022/11/10 05:51:20;;;;;;;;;;;;;;;16.70;54.29;99615.09;4507630;31;34099;-85
2022/11/10 05:54:07;;;;;;;;;;;;;;;17.22;52.67;99625.31;4501303;31;34378;-84
2022/11/10 05:56:55;;;;;;;;;;;;;;;16.76;54.14;99630.81;4498077;31;33296;-84
2022/11/10 05:59:41;;;;;;;;;;;;;;;16.82;53.67;99624.69;4497680;31;34024;-85
2022/11/10 06:02:27;;;;;;;;;;;;;;;17.36;52.14;99627.84;4499443;31;35383;-85
2022/11/10 06:05:13;;;;;;;;;;;;;;;16.82;53.93;99631.66;4507780;31;34037;-85
2022/11/10 06:07:59;;;;;;;;;;;;;;;16.73;54.05;99645.63;4511361;31;33792;-85
2022/11/10 06:10:44;;;;;;;;;;;;;;;16.60;54.50;99646.59;4511868;31;34977;-85
2022/11/10 06:13:30;;;;;;;;;;;;;;;17.31;52.59;99655.81;4510087;31;33954;-86
2022/11/10 06:16:15;;;;;;;;;;;;;;;16.81;53.95;99658.72;4511703;31;33800;-85
2022/11/10 06:19:01;;;;;;;;;;;;;;;16.59;54.46;99663.16;4500026;31;34054;-85
2022/11/10 06:21:47;;;;;;;;;;;;;;;16.59;54.44;99669.25;4500251;31;34029;-83
2022/11/10 06:24:33;;;;;;;;;;;;;;;16.88;53.68;99679.66;4499682;31;34150;-84
2022/11/10 06:27:18;;;;;;;;;;;;;;;16.65;54.39;99681.47;4499871;31;34658;-83
2022/11/10 06:30:04;;;;;;;;;;;;;;;16.94;53.56;99684.88;4500212;31;33595;-85
2022/11/10 06:32:50;;;;;;;;;;;;;;;16.64;54.37;99682.34;4499496;31;35203;-85
2022/11/10 06:35:35;;;;;;;;;;;;;;;16.66;54.24;99686.69;4500055;31;34073;-86
2022/11/10 06:38:21;;;;;;;;;;;;;;;16.27;55.36;99685.06;4509607;31;34578;-85
2022/11/10 06:41:07;;;;;;;;;;;;;;;16.71;54.17;99692.78;4507950;31;34005;-85
2022/11/10 06:43:54;;;;;;;;;;;;;;;16.50;54.83;99690.22;4499650;31;35083;-86
2022/11/10 06:46:40;;;;;;;;;;;;;;;17.00;53.35;99694.44;4499675;31;35295;-86
2022/11/10 06:49:27;;;;;;;;;;;;;;;17.06;53.25;99707.50;4499675;31;34936;-86
2022/11/10 06:52:12;;;;;;;;;;;;;;;17.38;52.16;99704.69;4499974;31;33394;-86
2022/11/10 06:54:58;;;;;;;;;;;;;;;17.54;51.85;99715.06;4499818;31;33623;-86
2022/11/10 06:57:44;;;;;;;;;;;;;;;17.05;52.69;99724.13;4499969;31;35361;-86
2022/11/10 07:00:29;;;;;;;;;;;;;;;16.41;54.76;99726.91;4499750;31;34314;-86
2022/11/10 07:03:15;;;;;;;;;;;;;;;16.58;54.12;99735.56;4499821;31;34185;-86
2022/11/10 07:06:01;;;;;;;;;;;;;;;16.47;54.74;99732.09;4499860;31;34262;-86
2022/11/10 07:08:47;;;;;;;;;;;;;;;17.06;53.30;99743.31;4499827;31;34151;-86
2022/11/10 07:11:32;;;;;;;;;;;;;;;16.82;53.76;99747.78;4499919;31;34557;-85
2022/11/10 07:14:18;;;;;;;;;;;;;;;16.50;55.00;99750.44;4509557;31;33220;-86
2022/11/10 07:17:04;;;;;;;;;;;;;;;16.75;54.42;99753.91;4499544;31;33711;-86
2022/11/10 07:19:49;;;;;;;;;;;;;;;16.87;53.80;99753.00;4499660;31;34126;-86
2022/11/10 07:22:35;;;;;;;;;;;;;;;17.13;53.22;99750.28;4499722;31;35195;-86
2022/11/10 07:25:21;;;;;;;;;;;;;;;16.87;53.77;99761.72;4499527;31;33996;-86
2022/11/10 07:28:09;;;;;;;;;;;;;;;17.25;52.70;99752.81;4499652;31;34879;-86
2022/11/10 07:30:55;;;;;;;;;;;;;;;16.69;54.30;99756.50;4499630;31;34088;-86
2022/11/10 07:33:42;;;;;;;;;;;;;;;16.98;53.55;99752.06;4499741;31;34305;-86
2022/11/10 07:36:28;;;;;;;;;;;;;;;15.65;57.31;99759.13;4499802;31;33328;-86
2022/11/10 07:39:14;;;;;;;;;;;;;;;16.68;54.02;99757.37;4499611;31;34298;-86
2022/11/10 07:41:59;;;;;;;;;;;;;;;17.00;53.09;99763.41;4499742;31;34705;-86
2022/11/10 07:44:45;;;;;;;;;;;;;;;16.96;53.43;99769.53;4499393;31;34955;-86
2022/11/10 07:47:31;;;;;;;;;;;;;;;16.74;54.36;99784.47;4499376;31;34377;-86
2022/11/10 07:50:17;;;;;;;;;;;;;;;15.14;59.02;99792.06;4499338;31;35205;-86
2022/11/10 07:53:06;;;;;;;;;;;;;;;16.12;56.38;99792.31;4499369;31;34388;-86
2022/11/10 07:55:52;;;;;;;;;;;;;;;16.57;55.18;99791.44;4499425;31;34053;-86
2022/11/10 07:58:37;;;;;;;;;;;;;;;16.74;54.54;99780.94;4499531;31;33971;-86
2022/11/10 08:01:23;;;;;;;;;;;;;;;15.62;57.71;99782.66;4499077;31;35137;-86
2022/11/10 08:04:09;;;;;;;;;;;;;;;15.54;57.66;99799.19;4499411;31;34345;-86
2022/11/10 08:06:55;;;;;;;;;;;;;;;15.60;57.93;99793.09;4499436;31;34451;-86
2022/11/10 08:09:40;;;;;;;;;;;;;;;15.87;57.51;99794.03;4499482;31;34175;-87
2022/11/10 08:12:26;;;;;;;;;;;;;;;15.40;58.83;99805.22;4499641;31;33669;-86
2022/11/10 08:15:17;;;;;;;;;;;;;;;15.01;59.83;99822.47;4499320;31;33662;-86
2022/11/10 08:18:04;;;;;;;;;;;;;;;15.97;56.95;99814.97;4499279;31;34632;-86
2022/11/10 08:20:51;;;;;;;;;;;;;;;15.83;57.51;99821.91;4499536;31;33871;-86
2022/11/10 08:23:36;;;;;;;;;;;;;;;15.19;59.44;99830.41;4499233;31;33818;-87
2022/11/10 08:26:22;;;;;;;;;;;;;;;15.97;56.82;99811.50;4498485;31;35266;-86
2022/11/10 08:29:08;;;;;;;;;;;;;;;15.06;59.03;99823.38;4499325;31;34288;-86
2022/11/10 08:31:54;;;;;;;;;;;;;;;14.10;62.34;99821.81;4499148;31;33614;-86
2022/11/10 08:34:40;;;;;;;;;;;;;;;14.57;60.86;99825.69;4499356;31;34860;-86
2022/11/10 08:37:26;;;;;;;;;;;;;;;15.18;59.75;99835.59;4499311;31;35303;-86
2022/11/10 08:40:12;;;;;;;;;;;;;;;16.25;56.46;99835.91;4498756;31;34349;-86
2022/11/10 08:42:58;;;;;;;;;;;;;;;14.76;59.39;99842.34;4474042;31;783561;-86
2022/11/10 08:45:44;;;;;;;;;;;;;;;15.75;56.85;99850.66;4498657;31;34500;-87
2022/11/10 08:48:30;;;;;;;;;;;;;;;15.50;58.61;99870.59;4499157;31;34909;-86
2022/11/10 08:51:17;;;;;;;;;;;;;;;15.74;57.59;99874.19;4498966;31;34106;-86
2022/11/10 08:54:03;;;;;;;;;;;;;;;15.75;56.38;99873.31;4498978;31;34145;-87
2022/11/10 08:56:48;;;;;;;;;;;;;;;16.10;55.53;99875.12;4498996;31;35064;-86
2022/11/10 08:59:34;;;;;;;;;;;;;;;16.22;54.77;99883.03;4498763;31;34422;-86
2022/11/10 09:02:20;;;;;;;;;;;;;;;14.80;58.69;99899.78;4498682;31;35043;-86
2022/11/10 09:05:06;;;;;;;;;;;;;;;15.90;56.27;99889.06;4498921;31;34078;-86
2022/11/10 09:07:51;;;;;;;;;;;;;;;16.00;55.20;99884.72;4498821;31;34727;-86
2022/11/10 09:10:38;;;;;;;;;;;;;;;16.57;53.41;99875.19;4498833;31;35257;-86
2022/11/10 09:13:24;;;;;;;;;;;;;;;16.72;51.99;99882.16;4498480;31;34490;-86
2022/11/10 09:16:15;;;;;;;;;;;;;;;15.77;54.86;99896.00;4498514;31;33604;-86
2022/11/10 09:19:01;;;;;;;;;;;;;;;15.80;55.06;99890.78;4498495;31;34630;-86
2022/11/10 09:21:46;;;;;;;;;;;;;;;15.26;55.94;99907.03;4498373;31;35132;-86
2022/11/10 09:24:32;;;;;;;;;;;;;;;14.59;57.96;99902.25;4498489;31;33353;-86
2022/11/10 09:27:18;;;;;;;;;;;;;;;14.72;58.25;99905.81;4498435;31;33568;-86
2022/11/10 09:30:04;;;;;;;;;;;;;;;15.65;55.17;99905.50;4498426;31;35029;-86
2022/11/10 09:32:53;;;;;;;;;;;;;;;15.22;56.97;99911.38;4498306;31;34521;-86
2022/11/10 09:35:39;;;;;;;;;;;;;;;14.77;58.21;99910.22;4498065;31;35064;-86
2022/11/10 09:38:25;;;;;;;;;;;;;;;15.05;57.84;99921.72;4500069;31;33528;-86
2022/11/10 09:41:11;;;;;;;;;;;;;;;15.41;56.21;99928.03;4500446;31;34061;-86
2022/11/10 09:44:02;;;;;;;;;;;;;;;16.01;54.41;99912.63;4500519;31;35332;-86
2022/11/10 09:46:49;;;;;;;;;;;;;;;16.17;54.57;99921.38;4500254;31;33757;-87
2022/11/10 09:49:36;;;;;;;;;;;;;;;15.38;56.28;99925.41;4510655;31;34136;-86
2022/11/10 09:52:22;;;;;;;;;;;;;;;16.36;53.82;99922.28;4510748;31;34114;-86
2022/11/10 09:55:10;;;;;;;;;;;;;;;16.14;53.86;99924.87;4510321;31;35156;-87
2022/11/10 09:57:56;;;;;;;;;;;;;;;15.57;56.17;99924.66;4500298;31;34036;-87
2022/11/10 10:00:44;;;;;;;;;;;;;;;15.87;55.24;99933.50;4500317;31;34289;-87
2022/11/10 10:03:29;;;;;;;;;;;;;;;16.45;54.52;99931.03;4510258;31;34296;-86
2022/11/10 10:06:15;;;;;;;;;;;;;;;15.16;58.17;99939.22;4500130;31;34486;-86
2022/11/10 10:09:16;;;;;;;;;;;;;;;15.50;57.94;99954.22;4510505;31;34300;-86
2022/11/10 10:12:17;;;;;;;;;;;;;;;14.98;59.06;99951.28;4500092;31;33507;-86
2022/11/10 10:15:09;;;;;;;;;;;;;;;14.38;60.94;99948.97;4510100;31;34947;-86
2022/11/10 10:18:18;;;;;;;;;;;;;;;14.69;60.70;99950.16;4510200;31;35137;-86
2022/11/10 10:21:23;;;;;;;;;;;;;;;15.54;57.84;99956.00;4500084;31;33943;-86
2022/11/10 10:24:10;;;;;;;;;;;;;;;13.94;62.16;99960.69;4510292;31;33668;-86
2022/11/10 10:27:07;;;;;;;;;;;;;;;15.94;57.11;99960.53;4509188;31;34917;-86
2022/11/10 10:29:53;;;;;;;;;;;;;;;15.47;58.07;99953.34;4509937;31;33922;-86
2022/11/10 10:32:39;;;;;;;;;;;;;;;16.56;54.96;99945.88;4510290;31;34085;-86
2022/11/10 10:35:24;;;;;;;;;;;;;;;15.40;58.31;99947.19;4510286;31;33564;-86
2022/11/10 10:38:13;;;;;;;;;;;;;;;16.22;56.18;99949.31;4499846;31;35174;-86
2022/11/10 10:41:01;;;;;;;;;;;;;;;15.37;58.69;99956.75;4509825;31;34349;-87
2022/11/10 10:43:47;;;;;;;;;;;;;;;15.19;59.11;99958.41;4498675;31;32845;-86
2022/11/10 10:46:33;;;;;;;;;;;;;;;16.58;54.44;99959.81;4509965;31;33230;-86
2022/11/10 10:49:27;;;;;;;;;;;;;;;16.83;53.67;99955.53;4509085;31;33941;-86
2022/11/10 10:52:15;;;;;;;;;;;;;;;16.49;54.94;99961.56;4509922;31;35254;-86
2022/11/10 10:55:05;;;;;;;;;;;;;;;16.04;55.54;99957.97;4499859;31;33955;-87
2022/11/10 10:57:51;;;;;;;;;;;;;;;15.67;56.91;99961.31;4500098;31;33502;-86
2022/11/10 11:00:47;;;;;;;;;;;;;;;16.84;53.03;99955.50;4499892;31;35123;-86
2022/11/10 11:03:43;;;;;;;;;;;;;;;16.84;53.03;99958.13;4509783;31;35074;-86
2022/11/10 11:06:29;;;;;;;;;;;;;;;16.41;54.68;99954.59;4499398;31;33705;-86
2022/11/10 11:09:22;;;;;;;;;;;;;;;16.67;54.25;99960.72;4509424;31;33681;-86
2022/11/10 11:12:16;;;;;;;;;;;;;;;16.26;54.67;99968.50;4499700;31;34889;-86
2022/11/10 11:15:11;;;;;;;;;;;;;;;15.35;57.33;99985.50;4499589;31;35070;-86
2022/11/10 11:18:04;;;;;;;;;;;;;;;16.60;54.56;99985.16;4500069;31;34235;-87
2022/11/10 11:20:56;;;;;;;;;;;;;;;16.35;55.30;99994.69;4498911;31;33101;-86
2022/11/10 11:23:52;;;;;;;;;;;;;;;15.57;56.85;99992.59;4509525;31;35217;-87
2022/11/10 11:26:57;;;;;;;;;;;;;;;16.07;55.73;99985.87;4509702;31;34189;-85
2022/11/10 11:29:45;;;;;;;;;;;;;;;16.80;53.74;99974.72;4499371;31;34310;-86
2022/11/10 11:32:36;;;;;;;;;;;;;;;17.36;52.22;99978.19;4499728;31;33890;-86
2022/11/10 11:35:26;;;;;;;;;;;;;;;17.33;51.75;99981.66;4509499;31;34306;-86
2022/11/10 11:38:15;;;;;;;;;;;;;;;17.32;52.26;99982.56;4509493;31;34185;-86
2022/11/10 11:41:01;;;;;;;;;;;;;;;16.18;55.17;99992.03;4509486;31;33591;-87
2022/11/10 11:43:58;;;;;;;;;;;;;;;16.00;55.41;99990.22;4499415;31;33223;-86
2022/11/10 11:46:47;;;;;;;;;;;;;;;16.67;54.17;99991.28;4499343;31;35140;-86
2022/11/10 11:49:50;;;;;;;;;;;;;;;16.21;55.14;100006.84;4499464;31;35346;-86
2022/11/10 11:52:38;;;;;;;;;;;;;;;16.84;53.65;99992.19;4499600;31;34352;-86
2022/11/10 11:55:39;;;;;;;;;;;;;;;15.61;56.67;99998.72;4499594;31;32834;-86
2022/11/10 11:58:32;;;;;;;;;;;;;;;16.84;53.42;100000.03;4509593;31;34155;-86
2022/11/10 12:01:27;;;;;;;;;;;;;;;17.02;52.79;99989.56;4507625;31;34511;-87
2022/11/10 12:04:25;;;;;;;;;;;;;;;16.87;53.10;99983.47;4499427;31;34378;-86
2022/11/10 12:07:17;;;;;;;;;;;;;;;17.01;52.31;99985.22;4499411;31;33695;-87
2022/11/10 12:10:22;;;;;;;;;;;;;;;16.43;54.12;99985.09;4509650;31;35110;-86
2022/11/10 12:13:19;;;;;;;;;;;;;;;16.58;54.05;100001.72;4499532;31;34302;-86
2022/11/10 12:16:14;;;;;;;;;;;;;;;15.99;55.36;100004.16;4499162;31;35158;-86
2022/11/10 12:19:21;;;;;;;;;;;;;;;15.57;56.80;100007.41;4509217;31;33574;-86
2022/11/10 12:22:12;;;;;;;;;;;;;;;16.94;52.83;100007.03;4499147;31;35074;-86
2022/11/10 12:25:07;;;;;;;;;;;;;;;17.49;51.30;100011.34;4509410;31;35355;-86
2022/11/10 12:28:05;;;;;;;;;;;;;;;16.70;53.34;100014.81;4509457;31;34201;-86
2022/11/10 12:30:51;;;;;;;;;;;;;;;17.68;50.92;100017.41;4509185;31;33132;-86
2022/11/10 12:33:44;;;;;;;;;;;;;;;17.33;51.28;100009.63;4499189;31;34310;-87
2022/11/10 12:36:29;;;;;;;;;;;;;;;17.09;52.15;100021.88;4499077;31;34139;-86
2022/11/10 12:39:30;;;;;;;;;;;;;;;16.80;52.78;100037.56;4509055;31;34373;-86
2022/11/10 12:42:17;;;;;;;;;;;;;;;16.73;53.52;100033.16;4508812;31;34306;-86
2022/11/10 12:45:05;;;;;;;;;;;;;;;16.03;55.20;100024.22;4509018;31;34430;-86
2022/11/10 12:47:50;;;;;;;;;;;;;;;17.33;51.25;100023.59;4499078;31;33750;-86
2022/11/10 12:50:55;;;;;;;;;;;;;;;16.61;53.89;100030.53;4508807;31;34455;-86
2022/11/10 12:53:41;;;;;;;;;;;;;;;16.41;54.20;100036.59;4498802;31;32980;-86
2022/11/10 12:56:26;;;;;;;;;;;;;;;16.39;54.24;100043.53;4508729;31;34177;-86
2022/11/10 12:59:13;;;;;;;;;;;;;;;16.21;55.24;100046.09;4498641;31;35392;-86
2022/11/10 13:02:04;;;;;;;;;;;;;;;16.90;53.34;100035.84;4498861;31;34630;-86
2022/11/10 13:05:08;;;;;;;;;;;;;;;16.56;54.64;100046.22;4498631;31;34285;-86
2022/11/10 13:08:05;;;;;;;;;;;;;;;15.98;56.28;100043.38;4498863;31;33706;-86
2022/11/10 13:10:53;;;;;;;;;;;;;;;16.57;54.98;100052.31;4508689;31;34097;-87
2022/11/10 13:13:54;;;;;;;;;;;;;;;15.53;57.32;100050.94;4499301;31;33725;-86
2022/11/10 13:16:48;;;;;;;;;;;;;;;15.36;58.21;100044.72;4500936;31;34220;-86
2022/11/10 13:19:37;;;;;;;;;;;;;;;15.75;57.24;100048.47;4510505;31;34867;-86
2022/11/10 13:22:32;;;;;;;;;;;;;;;15.88;56.66;100054.69;4500521;31;34458;-86
2022/11/10 13:25:40;;;;;;;;;;;;;;;15.30;57.36;100053.41;4500644;31;34375;-86
2022/11/10 13:28:44;;;;;;;;;;;;;;;15.82;56.19;100056.38;4500689;31;34042;-87
2022/11/10 13:31:30;;;;;;;;;;;;;;;15.69;56.53;100061.53;4500530;31;34266;-86
2022/11/10 13:34:18;;;;;;;;;;;;;;;16.54;54.58;100064.53;4500479;31;35169;-86
2022/11/10 13:37:32;;;;;;;;;;;;;;;17.11;52.38;100056.78;4500153;31;34357;-86
2022/11/10 13:40:23;;;;;;;;;;;;;;;16.58;53.27;100069.78;4500469;31;34213;-86
2022/11/10 13:43:10;;;;;;;;;;;;;;;15.45;57.18;100076.12;4500276;31;34028;-86
2022/11/10 13:45:59;;;;;;;;;;;;;;;15.78;55.31;100070.28;4510341;31;34244;-86
2022/11/10 13:48:48;;;;;;;;;;;;;;;16.33;53.70;100079.28;4500036;31;33952;-86
2022/11/10 13:52:04;;;;;;;;;;;;;;;16.98;52.11;100069.03;4510393;31;33477;-87
2022/11/10 13:55:05;;;;;;;;;;;;;;;15.34;56.77;100085.63;4500083;31;34444;-86
2022/11/10 13:57:59;;;;;;;;;;;;;;;15.53;56.53;100079.69;4500201;31;34566;-86
2022/11/10 14:00:47;;;;;;;;;;;;;;;16.20;54.57;100088.81;4510054;31;35404;-86
2022/11/10 14:03:46;;;;;;;;;;;;;;;16.68;53.80;100087.25;4510116;31;33150;-87
2022/11/10 14:06:35;;;;;;;;;;;;;;;16.78;53.46;100089.94;4500150;31;33981;-87
2022/11/10 14:09:30;;;;;;;;;;;;;;;17.02;52.59;100093.47;4500003;31;34917;-86
2022/11/10 14:12:24;;;;;;;;;;;;;;;16.95;52.55;100087.34;4500224;31;33451;-86
2022/11/10 14:15:10;;;;;;;;;;;;;;;16.87;52.50;100098.69;4502418;31;32752;-86
2022/11/10 14:17:56;;;;;;;;;;;;;;;15.57;55.81;100097.16;4501693;31;34382;-86
2022/11/10 14:20:43;;;;;;;;;;;;;;;15.86;55.69;100106.94;4499975;31;34312;-87
2022/11/10 14:23:28;;;;;;;;;;;;;;;15.00;58.16;100114.06;4509217;31;34208;-86
2022/11/10 14:26:17;;;;;;;;;;;;;;;15.65;56.39;100109.41;4500060;31;34239;-85
2022/11/10 14:29:21;;;;;;;;;;;;;;;16.25;54.76;100116.78;4499924;31;35163;-85
2022/11/10 14:32:20;;;;;;;;;;;;;;;15.96;55.20;100120.97;4499806;31;35206;-85
2022/11/10 14:35:14;;;;;;;;;;;;;;;16.23;55.01;100130.72;4509756;31;33606;-85
2022/11/10 14:38:01;;;;;;;;;;;;;;;16.48;53.54;100127.34;4501124;31;32943;-85
2022/11/10 14:40:46;;;;;;;;;;;;;;;16.79;53.13;100135.34;4500827;31;34453;-85
2022/11/10 14:43:32;;;;;;;;;;;;;;;16.36;54.03;100132.50;4502816;31;34270;-85
2022/11/10 14:46:22;;;;;;;;;;;;;;;16.67;53.33;100135.28;4507182;31;34773;-86